sensor_id;sensor_type;location;lat;lon;timestamp;P1;durP1;ratioP1;P2;durP2;ratioP2
26686;SDS011;14298;50.900;4.648;2023-05-10T00:00:18;13.17;;;12.47;;
26686;SDS011;14298;50.900;4.648;2023-05-10T00:02:47;15.67;;;14.67;;
26686;SDS011;14298;50.900;4.648;2023-05-10T00:05:15;15.20;;;14.23;;
26686;SDS011;14298;50.900;4.648;2023-05-10T00:07:43;15.57;;;14.63;;
26686;SDS011;14298;50.900;4.648;2023-05-10T00:10:14;16.07;;;14.87;;
26686;SDS011;14298;50.900;4.648;2023-05-10T00:12:42;15.97;;;14.83;;
26686;SDS011;14298;50.900;4.648;2023-05-10T00:15:10;17.70;;;16.63;;
26686;SDS011;14298;50.900;4.648;2023-05-10T00:17:38;15.97;;;15.13;;
26686;SDS011;14298;50.900;4.648;2023-05-10T00:20:07;14.47;;;13.77;;
26686;SDS011;14298;50.900;4.648;2023-05-10T00:22:35;16.90;;;15.40;;
26686;SDS011;14298;50.900;4.648;2023-05-10T00:25:03;15.53;;;14.63;;
26686;SDS011;14298;50.900;4.648;2023-05-10T00:27:31;15.30;;;13.80;;
26686;SDS011;14298;50.900;4.648;2023-05-10T00:29:59;13.73;;;12.93;;
26686;SDS011;14298;50.900;4.648;2023-05-10T00:32:27;15.67;;;14.53;;
26686;SDS011;14298;50.900;4.648;2023-05-10T00:34:55;14.53;;;13.70;;
26686;SDS011;14298;50.900;4.648;2023-05-10T00:37:23;13.60;;;12.90;;
26686;SDS011;14298;50.900;4.648;2023-05-10T00:39:51;14.33;;;13.43;;
26686;SDS011;14298;50.900;4.648;2023-05-10T00:42:20;16.27;;;15.17;;
26686;SDS011;14298;50.900;4.648;2023-05-10T00:44:48;15.47;;;14.57;;
26686;SDS011;14298;50.900;4.648;2023-05-10T00:47:16;15.57;;;14.20;;
26686;SDS011;14298;50.900;4.648;2023-05-10T00:49:44;14.33;;;13.33;;
26686;SDS011;14298;50.900;4.648;2023-05-10T00:52:13;14.00;;;13.20;;
26686;SDS011;14298;50.900;4.648;2023-05-10T00:54:41;15.87;;;14.67;;
26686;SDS011;14298;50.900;4.648;2023-05-10T00:57:09;15.17;;;13.97;;
26686;SDS011;14298;50.900;4.648;2023-05-10T00:59:37;15.60;;;14.50;;
26686;SDS011;14298;50.900;4.648;2023-05-10T01:02:06;13.83;;;13.00;;
26686;SDS011;14298;50.900;4.648;2023-05-10T01:04:34;14.50;;;13.60;;
26686;SDS011;14298;50.900;4.648;2023-05-10T01:07:03;13.23;;;12.53;;
26686;SDS011;14298;50.900;4.648;2023-05-10T01:09:31;14.33;;;13.30;;
26686;SDS011;14298;50.900;4.648;2023-05-10T01:11:59;14.30;;;13.47;;
26686;SDS011;14298;50.900;4.648;2023-05-10T01:14:28;14.33;;;13.43;;
26686;SDS011;14298;50.900;4.648;2023-05-10T01:16:56;16.30;;;15.27;;
26686;SDS011;14298;50.900;4.648;2023-05-10T01:19:25;14.50;;;13.60;;
26686;SDS011;14298;50.900;4.648;2023-05-10T01:24:40;15.77;;;14.40;;
26686;SDS011;14298;50.900;4.648;2023-05-10T01:27:25;15.37;;;14.17;;
26686;SDS011;14298;50.900;4.648;2023-05-10T01:35:16;16.90;;;15.87;;
26686;SDS011;14298;50.900;4.648;2023-05-10T01:37:55;16.17;;;14.87;;
26686;SDS011;14298;50.900;4.648;2023-05-10T01:40:26;14.83;;;14.03;;
26686;SDS011;14298;50.900;4.648;2023-05-10T01:42:56;14.70;;;13.83;;
26686;SDS011;14298;50.900;4.648;2023-05-10T01:45:28;14.03;;;13.17;;
26686;SDS011;14298;50.900;4.648;2023-05-10T01:48:08;17.07;;;16.07;;
26686;SDS011;14298;50.900;4.648;2023-05-10T01:50:27;16.30;;;15.00;;
26686;SDS011;14298;50.900;4.648;2023-05-10T01:52:57;16.93;;;15.83;;
26686;SDS011;14298;50.900;4.648;2023-05-10T01:58:14;16.73;;;15.53;;
26686;SDS011;14298;50.900;4.648;2023-05-10T02:00:43;17.20;;;16.00;;
26686;SDS011;14298;50.900;4.648;2023-05-10T02:03:12;16.10;;;14.87;;
26686;SDS011;14298;50.900;4.648;2023-05-10T02:05:41;17.87;;;16.70;;
26686;SDS011;14298;50.900;4.648;2023-05-10T02:08:12;15.90;;;14.90;;
26686;SDS011;14298;50.900;4.648;2023-05-10T02:10:41;17.17;;;15.97;;
26686;SDS011;14298;50.900;4.648;2023-05-10T02:13:10;16.87;;;15.70;;
26686;SDS011;14298;50.900;4.648;2023-05-10T02:15:38;18.27;;;16.70;;
26686;SDS011;14298;50.900;4.648;2023-05-10T02:18:07;17.33;;;15.93;;
26686;SDS011;14298;50.900;4.648;2023-05-10T02:20:37;18.60;;;16.87;;
26686;SDS011;14298;50.900;4.648;2023-05-10T02:23:05;16.70;;;15.70;;
26686;SDS011;14298;50.900;4.648;2023-05-10T02:25:34;17.90;;;16.77;;
26686;SDS011;14298;50.900;4.648;2023-05-10T02:28:03;17.90;;;16.63;;
26686;SDS011;14298;50.900;4.648;2023-05-10T02:33:19;16.60;;;15.30;;
26686;SDS011;14298;50.900;4.648;2023-05-10T02:35:48;17.10;;;15.90;;
26686;SDS011;14298;50.900;4.648;2023-05-10T02:38:18;18.40;;;17.13;;
26686;SDS011;14298;50.900;4.648;2023-05-10T02:40:48;18.77;;;17.50;;
26686;SDS011;14298;50.900;4.648;2023-05-10T02:43:16;19.63;;;17.90;;
26686;SDS011;14298;50.900;4.648;2023-05-10T02:45:46;18.63;;;17.30;;
26686;SDS011;14298;50.900;4.648;2023-05-10T02:48:15;18.93;;;17.60;;
26686;SDS011;14298;50.900;4.648;2023-05-10T02:53:36;17.27;;;16.07;;
26686;SDS011;14298;50.900;4.648;2023-05-10T02:56:11;14.70;;;13.80;;
26686;SDS011;14298;50.900;4.648;2023-05-10T02:58:35;15.73;;;14.67;;
26686;SDS011;14298;50.900;4.648;2023-05-10T03:01:03;17.67;;;16.37;;
26686;SDS011;14298;50.900;4.648;2023-05-10T03:03:31;14.73;;;13.83;;
26686;SDS011;14298;50.900;4.648;2023-05-10T03:05:59;14.90;;;13.90;;
26686;SDS011;14298;50.900;4.648;2023-05-10T03:08:27;13.07;;;12.07;;
26686;SDS011;14298;50.900;4.648;2023-05-10T03:13:34;15.10;;;14.03;;
26686;SDS011;14298;50.900;4.648;2023-05-10T03:21:07;13.80;;;12.63;;
26686;SDS011;14298;50.900;4.648;2023-05-10T03:23:41;13.87;;;12.67;;
26686;SDS011;14298;50.900;4.648;2023-05-10T03:26:10;16.43;;;15.13;;
26686;SDS011;14298;50.900;4.648;2023-05-10T03:28:39;15.17;;;14.27;;
26686;SDS011;14298;50.900;4.648;2023-05-10T03:31:07;13.03;;;12.13;;
26686;SDS011;14298;50.900;4.648;2023-05-10T03:33:38;11.50;;;10.80;;
26686;SDS011;14298;50.900;4.648;2023-05-10T03:36:05;11.73;;;10.73;;
26686;SDS011;14298;50.900;4.648;2023-05-10T03:38:33;12.20;;;11.33;;
26686;SDS011;14298;50.900;4.648;2023-05-10T03:41:01;12.73;;;11.93;;
26686;SDS011;14298;50.900;4.648;2023-05-10T03:43:29;14.90;;;13.70;;
26686;SDS011;14298;50.900;4.648;2023-05-10T03:45:57;14.90;;;13.97;;
26686;SDS011;14298;50.900;4.648;2023-05-10T03:48:25;14.17;;;13.40;;
26686;SDS011;14298;50.900;4.648;2023-05-10T03:50:53;17.20;;;16.00;;
26686;SDS011;14298;50.900;4.648;2023-05-10T03:53:21;21.97;;;20.50;;
26686;SDS011;14298;50.900;4.648;2023-05-10T03:55:50;19.80;;;18.43;;
26686;SDS011;14298;50.900;4.648;2023-05-10T03:58:18;19.60;;;18.23;;
26686;SDS011;14298;50.900;4.648;2023-05-10T04:00:46;17.33;;;16.13;;
26686;SDS011;14298;50.900;4.648;2023-05-10T04:03:15;16.03;;;14.50;;
26686;SDS011;14298;50.900;4.648;2023-05-10T04:05:44;17.53;;;11.03;;
26686;SDS011;14298;50.900;4.648;2023-05-10T04:08:12;11.53;;;10.37;;
26686;SDS011;14298;50.900;4.648;2023-05-10T04:10:40;10.50;;;9.13;;
26686;SDS011;14298;50.900;4.648;2023-05-10T04:13:08;14.33;;;12.07;;
26686;SDS011;14298;50.900;4.648;2023-05-10T04:15:36;14.83;;;13.67;;
26686;SDS011;14298;50.900;4.648;2023-05-10T04:18:04;14.27;;;13.13;;
26686;SDS011;14298;50.900;4.648;2023-05-10T04:20:32;14.47;;;13.37;;
26686;SDS011;14298;50.900;4.648;2023-05-10T04:23:00;13.57;;;12.57;;
26686;SDS011;14298;50.900;4.648;2023-05-10T04:25:28;14.90;;;12.53;;
26686;SDS011;14298;50.900;4.648;2023-05-10T04:27:56;11.30;;;10.40;;
26686;SDS011;14298;50.900;4.648;2023-05-10T04:30:24;13.97;;;11.83;;
26686;SDS011;14298;50.900;4.648;2023-05-10T04:32:54;12.80;;;11.60;;
26686;SDS011;14298;50.900;4.648;2023-05-10T04:35:22;13.37;;;11.43;;
26686;SDS011;14298;50.900;4.648;2023-05-10T04:37:50;11.97;;;11.00;;
26686;SDS011;14298;50.900;4.648;2023-05-10T04:40:18;16.30;;;15.00;;
26686;SDS011;14298;50.900;4.648;2023-05-10T04:42:46;14.30;;;12.43;;
26686;SDS011;14298;50.900;4.648;2023-05-10T04:45:14;11.27;;;10.17;;
26686;SDS011;14298;50.900;4.648;2023-05-10T04:47:42;13.13;;;11.77;;
26686;SDS011;14298;50.900;4.648;2023-05-10T04:50:10;10.77;;;5.77;;
26686;SDS011;14298;50.900;4.648;2023-05-10T04:52:38;8.13;;;6.83;;
26686;SDS011;14298;50.900;4.648;2023-05-10T04:55:06;16.53;;;7.03;;
26686;SDS011;14298;50.900;4.648;2023-05-10T04:57:36;13.53;;;7.70;;
26686;SDS011;14298;50.900;4.648;2023-05-10T05:00:04;9.47;;;7.53;;
26686;SDS011;14298;50.900;4.648;2023-05-10T05:02:33;17.03;;;9.67;;
26686;SDS011;14298;50.900;4.648;2023-05-10T05:05:01;15.93;;;8.47;;
26686;SDS011;14298;50.900;4.648;2023-05-10T05:07:28;24.60;;;7.73;;
26686;SDS011;14298;50.900;4.648;2023-05-10T05:09:57;19.60;;;7.90;;
26686;SDS011;14298;50.900;4.648;2023-05-10T05:12:25;12.93;;;8.13;;
26686;SDS011;14298;50.900;4.648;2023-05-10T05:14:53;12.43;;;6.77;;
26686;SDS011;14298;50.900;4.648;2023-05-10T05:17:21;17.90;;;9.47;;
26686;SDS011;14298;50.900;4.648;2023-05-10T05:19:49;24.93;;;10.80;;
26686;SDS011;14298;50.900;4.648;2023-05-10T05:22:17;13.53;;;10.37;;
26686;SDS011;14298;50.900;4.648;2023-05-10T05:24:46;17.50;;;10.67;;
26686;SDS011;14298;50.900;4.648;2023-05-10T05:27:14;18.73;;;10.33;;
26686;SDS011;14298;50.900;4.648;2023-05-10T05:29:42;13.73;;;11.90;;
26686;SDS011;14298;50.900;4.648;2023-05-10T05:32:10;27.17;;;11.63;;
26686;SDS011;14298;50.900;4.648;2023-05-10T05:34:38;25.37;;;13.10;;
26686;SDS011;14298;50.900;4.648;2023-05-10T05:37:06;24.77;;;12.63;;
26686;SDS011;14298;50.900;4.648;2023-05-10T05:39:35;14.10;;;9.03;;
26686;SDS011;14298;50.900;4.648;2023-05-10T05:42:03;14.20;;;12.40;;
26686;SDS011;14298;50.900;4.648;2023-05-10T05:44:32;26.83;;;12.63;;
26686;SDS011;14298;50.900;4.648;2023-05-10T05:47:00;18.00;;;11.17;;
26686;SDS011;14298;50.900;4.648;2023-05-10T05:49:28;15.37;;;11.83;;
26686;SDS011;14298;50.900;4.648;2023-05-10T05:51:59;14.60;;;12.30;;
26686;SDS011;14298;50.900;4.648;2023-05-10T05:57:16;23.30;;;13.40;;
26686;SDS011;14298;50.900;4.648;2023-05-10T05:59:44;18.00;;;12.40;;
26686;SDS011;14298;50.900;4.648;2023-05-10T06:02:12;18.70;;;14.20;;
26686;SDS011;14298;50.900;4.648;2023-05-10T06:04:40;19.10;;;14.00;;
26686;SDS011;14298;50.900;4.648;2023-05-10T06:07:08;28.97;;;13.70;;
26686;SDS011;14298;50.900;4.648;2023-05-10T06:09:37;17.30;;;11.90;;
26686;SDS011;14298;50.900;4.648;2023-05-10T06:12:05;13.50;;;12.10;;
26686;SDS011;14298;50.900;4.648;2023-05-10T06:14:33;19.03;;;10.67;;
26686;SDS011;14298;50.900;4.648;2023-05-10T06:17:01;16.77;;;12.87;;
26686;SDS011;14298;50.900;4.648;2023-05-10T06:19:31;12.53;;;11.13;;
26686;SDS011;14298;50.900;4.648;2023-05-10T06:21:59;12.63;;;11.43;;
26686;SDS011;14298;50.900;4.648;2023-05-10T06:24:27;19.77;;;12.73;;
26686;SDS011;14298;50.900;4.648;2023-05-10T06:26:55;21.00;;;13.00;;
26686;SDS011;14298;50.900;4.648;2023-05-10T06:29:23;15.73;;;12.80;;
26686;SDS011;14298;50.900;4.648;2023-05-10T06:31:51;11.90;;;10.87;;
26686;SDS011;14298;50.900;4.648;2023-05-10T06:34:20;16.33;;;14.17;;
26686;SDS011;14298;50.900;4.648;2023-05-10T06:36:48;16.00;;;12.33;;
26686;SDS011;14298;50.900;4.648;2023-05-10T06:39:16;20.73;;;12.77;;
26686;SDS011;14298;50.900;4.648;2023-05-10T06:41:44;13.93;;;12.03;;
26686;SDS011;14298;50.900;4.648;2023-05-10T06:44:12;16.97;;;15.13;;
26686;SDS011;14298;50.900;4.648;2023-05-10T06:46:40;19.17;;;14.20;;
26686;SDS011;14298;50.900;4.648;2023-05-10T06:49:08;18.43;;;14.33;;
26686;SDS011;14298;50.900;4.648;2023-05-10T06:51:36;13.60;;;12.30;;
26686;SDS011;14298;50.900;4.648;2023-05-10T06:54:04;19.40;;;13.60;;
26686;SDS011;14298;50.900;4.648;2023-05-10T06:56:32;18.00;;;13.57;;
26686;SDS011;14298;50.900;4.648;2023-05-10T06:59:00;14.60;;;13.30;;
26686;SDS011;14298;50.900;4.648;2023-05-10T07:01:28;14.03;;;12.70;;
26686;SDS011;14298;50.900;4.648;2023-05-10T07:03:56;12.43;;;11.33;;
26686;SDS011;14298;50.900;4.648;2023-05-10T07:06:24;13.93;;;10.70;;
26686;SDS011;14298;50.900;4.648;2023-05-10T07:08:52;12.80;;;11.67;;
26686;SDS011;14298;50.900;4.648;2023-05-10T07:11:20;10.33;;;9.53;;
26686;SDS011;14298;50.900;4.648;2023-05-10T07:13:48;9.87;;;9.20;;
26686;SDS011;14298;50.900;4.648;2023-05-10T07:16:16;9.30;;;8.70;;
26686;SDS011;14298;50.900;4.648;2023-05-10T07:18:44;9.97;;;9.20;;
26686;SDS011;14298;50.900;4.648;2023-05-10T07:21:12;9.77;;;8.93;;
26686;SDS011;14298;50.900;4.648;2023-05-10T07:23:40;8.87;;;8.00;;
26686;SDS011;14298;50.900;4.648;2023-05-10T07:26:08;7.77;;;6.80;;
26686;SDS011;14298;50.900;4.648;2023-05-10T07:28:37;7.93;;;7.50;;
26686;SDS011;14298;50.900;4.648;2023-05-10T07:31:05;7.93;;;7.33;;
26686;SDS011;14298;50.900;4.648;2023-05-10T07:33:33;8.13;;;7.53;;
26686;SDS011;14298;50.900;4.648;2023-05-10T07:36:02;7.23;;;6.83;;
26686;SDS011;14298;50.900;4.648;2023-05-10T07:38:30;7.70;;;7.20;;
26686;SDS011;14298;50.900;4.648;2023-05-10T07:40:58;7.50;;;6.97;;
26686;SDS011;14298;50.900;4.648;2023-05-10T07:43:26;8.07;;;7.57;;
26686;SDS011;14298;50.900;4.648;2023-05-10T07:45:54;6.37;;;5.97;;
26686;SDS011;14298;50.900;4.648;2023-05-10T07:48:23;7.27;;;6.77;;
26686;SDS011;14298;50.900;4.648;2023-05-10T07:50:51;7.73;;;7.13;;
26686;SDS011;14298;50.900;4.648;2023-05-10T07:53:19;7.13;;;6.50;;
26686;SDS011;14298;50.900;4.648;2023-05-10T07:55:51;8.17;;;7.40;;
26686;SDS011;14298;50.900;4.648;2023-05-10T07:58:19;7.97;;;7.27;;
26686;SDS011;14298;50.900;4.648;2023-05-10T08:00:47;8.33;;;7.33;;
26686;SDS011;14298;50.900;4.648;2023-05-10T08:03:16;7.40;;;6.90;;
26686;SDS011;14298;50.900;4.648;2023-05-10T08:05:44;7.13;;;6.53;;
26686;SDS011;14298;50.900;4.648;2023-05-10T08:08:12;8.63;;;7.67;;
26686;SDS011;14298;50.900;4.648;2023-05-10T08:10:40;8.07;;;7.17;;
26686;SDS011;14298;50.900;4.648;2023-05-10T08:13:07;8.67;;;7.87;;
26686;SDS011;14298;50.900;4.648;2023-05-10T08:15:35;6.70;;;6.00;;
26686;SDS011;14298;50.900;4.648;2023-05-10T08:18:03;9.30;;;6.93;;
26686;SDS011;14298;50.900;4.648;2023-05-10T08:20:31;8.23;;;6.40;;
26686;SDS011;14298;50.900;4.648;2023-05-10T08:22:59;6.10;;;5.67;;
26686;SDS011;14298;50.900;4.648;2023-05-10T08:25:27;9.60;;;6.17;;
26686;SDS011;14298;50.900;4.648;2023-05-10T08:27:55;9.83;;;4.80;;
26686;SDS011;14298;50.900;4.648;2023-05-10T08:30:23;4.93;;;4.60;;
26686;SDS011;14298;50.900;4.648;2023-05-10T08:32:51;5.17;;;4.63;;
26686;SDS011;14298;50.900;4.648;2023-05-10T08:35:19;9.30;;;5.80;;
26686;SDS011;14298;50.900;4.648;2023-05-10T08:37:47;8.33;;;5.37;;
26686;SDS011;14298;50.900;4.648;2023-05-10T08:40:15;5.57;;;4.47;;
26686;SDS011;14298;50.900;4.648;2023-05-10T08:42:45;4.83;;;4.33;;
26686;SDS011;14298;50.900;4.648;2023-05-10T08:45:13;4.23;;;3.83;;
26686;SDS011;14298;50.900;4.648;2023-05-10T08:47:41;4.90;;;4.50;;
26686;SDS011;14298;50.900;4.648;2023-05-10T08:50:09;5.13;;;4.63;;
26686;SDS011;14298;50.900;4.648;2023-05-10T08:52:38;3.67;;;3.37;;
26686;SDS011;14298;50.900;4.648;2023-05-10T08:55:07;3.97;;;3.27;;
26686;SDS011;14298;50.900;4.648;2023-05-10T08:57:35;5.20;;;3.53;;
26686;SDS011;14298;50.900;4.648;2023-05-10T09:00:04;9.73;;;4.57;;
26686;SDS011;14298;50.900;4.648;2023-05-10T09:02:32;2.93;;;2.67;;
26686;SDS011;14298;50.900;4.648;2023-05-10T09:05:00;3.40;;;3.13;;
26686;SDS011;14298;50.900;4.648;2023-05-10T09:07:30;4.03;;;3.47;;
26686;SDS011;14298;50.900;4.648;2023-05-10T09:09:58;5.60;;;3.90;;
26686;SDS011;14298;50.900;4.648;2023-05-10T09:12:27;8.07;;;3.97;;
26686;SDS011;14298;50.900;4.648;2023-05-10T09:14:55;3.93;;;3.27;;
26686;SDS011;14298;50.900;4.648;2023-05-10T09:17:23;3.93;;;3.63;;
26686;SDS011;14298;50.900;4.648;2023-05-10T09:20:02;4.47;;;3.60;;
26686;SDS011;14298;50.900;4.648;2023-05-10T09:22:21;3.07;;;2.77;;
26686;SDS011;14298;50.900;4.648;2023-05-10T09:25:03;5.07;;;3.40;;
26686;SDS011;14298;50.900;4.648;2023-05-10T09:27:26;3.67;;;3.37;;
26686;SDS011;14298;50.900;4.648;2023-05-10T09:29:48;5.23;;;3.40;;
26686;SDS011;14298;50.900;4.648;2023-05-10T09:32:18;4.87;;;3.53;;
26686;SDS011;14298;50.900;4.648;2023-05-10T09:34:46;2.13;;;1.97;;
26686;SDS011;14298;50.900;4.648;2023-05-10T09:37:15;4.40;;;3.47;;
26686;SDS011;14298;50.900;4.648;2023-05-10T09:39:43;2.87;;;2.17;;
26686;SDS011;14298;50.900;4.648;2023-05-10T09:42:11;3.37;;;3.03;;
26686;SDS011;14298;50.900;4.648;2023-05-10T09:44:39;6.03;;;3.87;;
26686;SDS011;14298;50.900;4.648;2023-05-10T09:47:09;5.10;;;3.63;;
26686;SDS011;14298;50.900;4.648;2023-05-10T09:49:37;3.27;;;2.97;;
26686;SDS011;14298;50.900;4.648;2023-05-10T09:52:06;10.20;;;3.53;;
26686;SDS011;14298;50.900;4.648;2023-05-10T09:54:34;7.17;;;3.83;;
26686;SDS011;14298;50.900;4.648;2023-05-10T09:57:03;3.97;;;3.20;;
26686;SDS011;14298;50.900;4.648;2023-05-10T09:59:32;3.33;;;3.03;;
26686;SDS011;14298;50.900;4.648;2023-05-10T10:02:02;2.50;;;2.40;;
26686;SDS011;14298;50.900;4.648;2023-05-10T10:04:30;5.90;;;3.57;;
26686;SDS011;14298;50.900;4.648;2023-05-10T10:06:59;2.77;;;2.50;;
26686;SDS011;14298;50.900;4.648;2023-05-10T10:09:28;3.90;;;3.30;;
26686;SDS011;14298;50.900;4.648;2023-05-10T10:11:56;2.67;;;2.47;;
26686;SDS011;14298;50.900;4.648;2023-05-10T10:14:24;2.73;;;2.10;;
26686;SDS011;14298;50.900;4.648;2023-05-10T10:16:52;2.50;;;2.37;;
26686;SDS011;14298;50.900;4.648;2023-05-10T10:19:20;2.47;;;1.97;;
26686;SDS011;14298;50.900;4.648;2023-05-10T10:21:49;2.53;;;2.33;;
26686;SDS011;14298;50.900;4.648;2023-05-10T10:24:17;2.30;;;2.20;;
26686;SDS011;14298;50.900;4.648;2023-05-10T10:26:45;3.20;;;2.73;;
26686;SDS011;14298;50.900;4.648;2023-05-10T10:29:23;1.40;;;1.40;;
26686;SDS011;14298;50.900;4.648;2023-05-10T10:31:53;5.80;;;2.33;;
26686;SDS011;14298;50.900;4.648;2023-05-10T10:36:55;2.63;;;2.43;;
26686;SDS011;14298;50.900;4.648;2023-05-10T10:39:24;1.90;;;1.80;;
26686;SDS011;14298;50.900;4.648;2023-05-10T10:41:56;2.20;;;2.10;;
26686;SDS011;14298;50.900;4.648;2023-05-10T10:47:02;1.90;;;1.80;;
26686;SDS011;14298;50.900;4.648;2023-05-10T10:49:32;1.80;;;1.70;;
26686;SDS011;14298;50.900;4.648;2023-05-10T10:52:20;3.37;;;1.70;;
26686;SDS011;14298;50.900;4.648;2023-05-10T10:55:20;1.67;;;1.47;;
26686;SDS011;14298;50.900;4.648;2023-05-10T10:57:21;1.40;;;1.30;;
26686;SDS011;14298;50.900;4.648;2023-05-10T10:59:49;1.10;;;1.10;;
26686;SDS011;14298;50.900;4.648;2023-05-10T11:02:33;1.20;;;1.10;;
26686;SDS011;14298;50.900;4.648;2023-05-10T11:07:55;1.07;;;0.97;;
26686;SDS011;14298;50.900;4.648;2023-05-10T11:10:23;0.60;;;0.60;;
26686;SDS011;14298;50.900;4.648;2023-05-10T11:18:24;1.10;;;0.73;;
26686;SDS011;14298;50.900;4.648;2023-05-10T11:20:51;0.87;;;0.87;;
26686;SDS011;14298;50.900;4.648;2023-05-10T11:23:19;0.43;;;0.43;;
26686;SDS011;14298;50.900;4.648;2023-05-10T11:25:48;0.93;;;0.77;;
26686;SDS011;14298;50.900;4.648;2023-05-10T11:28:17;0.43;;;0.43;;
26686;SDS011;14298;50.900;4.648;2023-05-10T11:30:46;1.80;;;0.90;;
26686;SDS011;14298;50.900;4.648;2023-05-10T11:33:15;0.60;;;0.60;;
26686;SDS011;14298;50.900;4.648;2023-05-10T11:35:44;1.10;;;0.90;;
26686;SDS011;14298;50.900;4.648;2023-05-10T11:38:12;0.70;;;0.70;;
26686;SDS011;14298;50.900;4.648;2023-05-10T11:40:40;4.83;;;1.23;;
26686;SDS011;14298;50.900;4.648;2023-05-10T11:43:09;1.77;;;0.60;;
26686;SDS011;14298;50.900;4.648;2023-05-10T11:45:38;1.13;;;0.90;;
26686;SDS011;14298;50.900;4.648;2023-05-10T11:48:07;1.57;;;0.70;;
26686;SDS011;14298;50.900;4.648;2023-05-10T11:50:35;0.93;;;0.90;;
26686;SDS011;14298;50.900;4.648;2023-05-10T11:53:03;1.03;;;0.83;;
26686;SDS011;14298;50.900;4.648;2023-05-10T11:55:33;1.23;;;1.13;;
26686;SDS011;14298;50.900;4.648;2023-05-10T11:58:01;0.83;;;0.73;;
26686;SDS011;14298;50.900;4.648;2023-05-10T12:00:29;1.07;;;1.03;;
26686;SDS011;14298;50.900;4.648;2023-05-10T12:02:59;1.20;;;1.10;;
26686;SDS011;14298;50.900;4.648;2023-05-10T12:05:28;1.17;;;1.07;;
26686;SDS011;14298;50.900;4.648;2023-05-10T12:08:10;2.30;;;1.33;;
26686;SDS011;14298;50.900;4.648;2023-05-10T12:10:26;1.20;;;1.10;;
26686;SDS011;14298;50.900;4.648;2023-05-10T12:12:54;0.97;;;0.80;;
26686;SDS011;14298;50.900;4.648;2023-05-10T12:15:24;1.10;;;0.80;;
26686;SDS011;14298;50.900;4.648;2023-05-10T12:17:52;1.07;;;0.97;;
26686;SDS011;14298;50.900;4.648;2023-05-10T12:20:20;1.30;;;1.20;;
26686;SDS011;14298;50.900;4.648;2023-05-10T12:22:55;1.30;;;1.10;;
26686;SDS011;14298;50.900;4.648;2023-05-10T12:25:18;1.53;;;1.43;;
26686;SDS011;14298;50.900;4.648;2023-05-10T12:27:48;0.87;;;0.87;;
26686;SDS011;14298;50.900;4.648;2023-05-10T12:30:23;1.37;;;0.83;;
26686;SDS011;14298;50.900;4.648;2023-05-10T12:32:51;1.33;;;1.23;;
26686;SDS011;14298;50.900;4.648;2023-05-10T12:35:19;1.10;;;0.90;;
26686;SDS011;14298;50.900;4.648;2023-05-10T12:37:49;1.17;;;0.97;;
26686;SDS011;14298;50.900;4.648;2023-05-10T12:40:18;0.83;;;0.70;;
26686;SDS011;14298;50.900;4.648;2023-05-10T12:42:46;2.03;;;1.00;;
26686;SDS011;14298;50.900;4.648;2023-05-10T12:45:16;0.63;;;0.63;;
26686;SDS011;14298;50.900;4.648;2023-05-10T12:47:45;1.00;;;1.00;;
26686;SDS011;14298;50.900;4.648;2023-05-10T12:50:12;0.93;;;0.77;;
26686;SDS011;14298;50.900;4.648;2023-05-10T12:52:40;0.70;;;0.70;;
26686;SDS011;14298;50.900;4.648;2023-05-10T12:55:08;0.97;;;0.77;;
26686;SDS011;14298;50.900;4.648;2023-05-10T12:57:37;0.87;;;0.63;;
26686;SDS011;14298;50.900;4.648;2023-05-10T13:00:05;0.87;;;0.87;;
26686;SDS011;14298;50.900;4.648;2023-05-10T13:02:33;0.77;;;0.63;;
26686;SDS011;14298;50.900;4.648;2023-05-10T13:05:01;1.10;;;0.90;;
26686;SDS011;14298;50.900;4.648;2023-05-10T13:07:30;0.37;;;0.37;;
26686;SDS011;14298;50.900;4.648;2023-05-10T13:09:58;1.27;;;0.93;;
26686;SDS011;14298;50.900;4.648;2023-05-10T13:12:26;1.00;;;0.70;;
26686;SDS011;14298;50.900;4.648;2023-05-10T13:14:54;0.97;;;0.90;;
26686;SDS011;14298;50.900;4.648;2023-05-10T13:17:22;0.83;;;0.80;;
26686;SDS011;14298;50.900;4.648;2023-05-10T13:19:50;1.10;;;1.00;;
26686;SDS011;14298;50.900;4.648;2023-05-10T13:22:18;0.90;;;0.80;;
26686;SDS011;14298;50.900;4.648;2023-05-10T13:24:46;0.80;;;0.80;;
26686;SDS011;14298;50.900;4.648;2023-05-10T13:27:14;1.53;;;1.30;;
26686;SDS011;14298;50.900;4.648;2023-05-10T13:29:42;0.90;;;0.70;;
26686;SDS011;14298;50.900;4.648;2023-05-10T13:32:10;2.33;;;1.13;;
26686;SDS011;14298;50.900;4.648;2023-05-10T13:34:38;0.40;;;0.40;;
26686;SDS011;14298;50.900;4.648;2023-05-10T13:37:06;0.90;;;0.70;;
26686;SDS011;14298;50.900;4.648;2023-05-10T13:39:34;0.83;;;0.80;;
26686;SDS011;14298;50.900;4.648;2023-05-10T13:42:04;1.40;;;0.80;;
26686;SDS011;14298;50.900;4.648;2023-05-10T13:44:32;1.10;;;1.00;;
26686;SDS011;14298;50.900;4.648;2023-05-10T13:47:00;0.80;;;0.63;;
26686;SDS011;14298;50.900;4.648;2023-05-10T13:49:28;0.83;;;0.63;;
26686;SDS011;14298;50.900;4.648;2023-05-10T13:51:56;0.90;;;0.90;;
26686;SDS011;14298;50.900;4.648;2023-05-10T13:54:24;0.90;;;0.90;;
26686;SDS011;14298;50.900;4.648;2023-05-10T13:56:54;1.53;;;0.50;;
26686;SDS011;14298;50.900;4.648;2023-05-10T13:59:22;0.67;;;0.67;;
26686;SDS011;14298;50.900;4.648;2023-05-10T14:01:50;0.93;;;0.73;;
26686;SDS011;14298;50.900;4.648;2023-05-10T14:04:18;1.27;;;1.17;;
26686;SDS011;14298;50.900;4.648;2023-05-10T14:06:46;0.70;;;0.63;;
26686;SDS011;14298;50.900;4.648;2023-05-10T14:09:15;1.90;;;1.40;;
26686;SDS011;14298;50.900;4.648;2023-05-10T14:11:42;0.90;;;0.90;;
26686;SDS011;14298;50.900;4.648;2023-05-10T14:14:12;0.67;;;0.67;;
26686;SDS011;14298;50.900;4.648;2023-05-10T14:16:43;0.73;;;0.73;;
26686;SDS011;14298;50.900;4.648;2023-05-10T14:19:12;0.87;;;0.70;;
26686;SDS011;14298;50.900;4.648;2023-05-10T14:21:40;0.60;;;0.60;;
26686;SDS011;14298;50.900;4.648;2023-05-10T14:24:08;1.73;;;1.03;;
26686;SDS011;14298;50.900;4.648;2023-05-10T14:26:36;0.90;;;0.90;;
26686;SDS011;14298;50.900;4.648;2023-05-10T14:29:04;1.80;;;1.10;;
26686;SDS011;14298;50.900;4.648;2023-05-10T14:31:32;0.80;;;0.80;;
26686;SDS011;14298;50.900;4.648;2023-05-10T14:34:00;1.13;;;1.03;;
26686;SDS011;14298;50.900;4.648;2023-05-10T14:36:28;1.40;;;1.17;;
26686;SDS011;14298;50.900;4.648;2023-05-10T14:38:56;3.23;;;1.13;;
26686;SDS011;14298;50.900;4.648;2023-05-10T14:41:24;1.13;;;1.00;;
26686;SDS011;14298;50.900;4.648;2023-05-10T14:43:53;1.23;;;1.00;;
26686;SDS011;14298;50.900;4.648;2023-05-10T14:46:21;1.10;;;0.90;;
26686;SDS011;14298;50.900;4.648;2023-05-10T14:48:49;0.83;;;0.80;;
26686;SDS011;14298;50.900;4.648;2023-05-10T14:51:17;1.40;;;0.87;;
26686;SDS011;14298;50.900;4.648;2023-05-10T14:53:47;1.43;;;1.33;;
26686;SDS011;14298;50.900;4.648;2023-05-10T14:56:16;3.10;;;1.23;;
26686;SDS011;14298;50.900;4.648;2023-05-10T14:58:44;1.20;;;1.10;;
26686;SDS011;14298;50.900;4.648;2023-05-10T15:01:12;3.33;;;1.30;;
26686;SDS011;14298;50.900;4.648;2023-05-10T15:03:40;1.13;;;1.10;;
26686;SDS011;14298;50.900;4.648;2023-05-10T15:06:08;1.50;;;1.37;;
26686;SDS011;14298;50.900;4.648;2023-05-10T15:08:36;5.43;;;2.07;;
26686;SDS011;14298;50.900;4.648;2023-05-10T15:11:04;3.10;;;1.73;;
26686;SDS011;14298;50.900;4.648;2023-05-10T15:13:32;3.57;;;1.83;;
26686;SDS011;14298;50.900;4.648;2023-05-10T15:16:00;2.30;;;2.10;;
26686;SDS011;14298;50.900;4.648;2023-05-10T15:18:28;3.07;;;2.60;;
26686;SDS011;14298;50.900;4.648;2023-05-10T15:20:56;9.53;;;2.33;;
26686;SDS011;14298;50.900;4.648;2023-05-10T15:23:25;2.57;;;2.37;;